sensor_id;sensor_type;location;lat;lon;timestamp;pressure;altitude;pressure_sealevel;temperature;humidity
76285;BME280;65096;50.998;7.098;2022-12-28T00:01:07;101321.56;;;3.21;65.87
76285;BME280;65096;50.998;7.098;2022-12-28T00:03:34;101284.34;;;3.05;65.30
76285;BME280;65096;50.998;7.098;2022-12-28T00:06:01;101306.50;;;3.25;65.28
76285;BME280;65096;50.998;7.098;2022-12-28T00:08:29;101313.88;;;3.38;65.12
76285;BME280;65096;50.998;7.098;2022-12-28T00:10:59;101305.44;;;3.39;65.03
76285;BME280;65096;50.998;7.098;2022-12-28T00:13:26;101295.06;;;3.54;64.95
76285;BME280;65096;50.998;7.098;2022-12-28T00:15:54;101298.88;;;3.64;64.70
76285;BME280;65096;50.998;7.098;2022-12-28T00:18:21;101293.22;;;3.52;65.01
76285;BME280;65096;50.998;7.098;2022-12-28T00:20:55;101285.59;;;3.52;65.13
76285;BME280;65096;50.998;7.098;2022-12-28T00:23:22;101287.66;;;3.60;64.99
76285;BME280;65096;50.998;7.098;2022-12-28T00:25:50;101283.78;;;3.49;65.14
76285;BME280;65096;50.998;7.098;2022-12-28T00:28:17;101287.78;;;3.63;64.67
76285;BME280;65096;50.998;7.098;2022-12-28T00:30:44;101290.41;;;3.65;64.67
76285;BME280;65096;50.998;7.098;2022-12-28T00:33:10;101289.19;;;3.76;64.35
76285;BME280;65096;50.998;7.098;2022-12-28T00:35:37;101294.22;;;3.74;64.56
76285;BME280;65096;50.998;7.098;2022-12-28T00:38:04;101293.16;;;3.69;64.48
76285;BME280;65096;50.998;7.098;2022-12-28T00:40:31;101281.09;;;3.65;64.81
76285;BME280;65096;50.998;7.098;2022-12-28T00:42:59;101284.47;;;3.85;64.45
76285;BME280;65096;50.998;7.098;2022-12-28T00:45:26;101269.78;;;3.79;64.87
76285;BME280;65096;50.998;7.098;2022-12-28T00:47:53;101272.69;;;3.68;65.59
76285;BME280;65096;50.998;7.098;2022-12-28T00:50:20;101265.50;;;3.59;66.32
76285;BME280;65096;50.998;7.098;2022-12-28T00:52:46;101259.34;;;3.73;65.62
76285;BME280;65096;50.998;7.098;2022-12-28T00:55:13;101259.53;;;3.78;66.59
76285;BME280;65096;50.998;7.098;2022-12-28T00:57:40;101257.22;;;3.84;66.04
76285;BME280;65096;50.998;7.098;2022-12-28T01:00:09;101249.63;;;3.85;65.71
76285;BME280;65096;50.998;7.098;2022-12-28T01:02:36;101226.84;;;3.69;66.33
76285;BME280;65096;50.998;7.098;2022-12-28T01:05:04;101238.38;;;3.80;65.90
76285;BME280;65096;50.998;7.098;2022-12-28T01:07:30;101231.06;;;3.88;66.53
76285;BME280;65096;50.998;7.098;2022-12-28T01:09:57;101218.84;;;3.81;66.27
76285;BME280;65096;50.998;7.098;2022-12-28T01:12:24;101226.78;;;3.68;66.89
76285;BME280;65096;50.998;7.098;2022-12-28T01:14:50;101219.94;;;3.67;66.86
76285;BME280;65096;50.998;7.098;2022-12-28T01:17:18;101214.56;;;3.80;66.86
76285;BME280;65096;50.998;7.098;2022-12-28T01:19:45;101211.44;;;3.87;66.91
76285;BME280;65096;50.998;7.098;2022-12-28T01:22:12;101205.53;;;3.88;67.07
76285;BME280;65096;50.998;7.098;2022-12-28T01:24:38;101201.56;;;3.94;66.38
76285;BME280;65096;50.998;7.098;2022-12-28T01:27:05;101200.38;;;3.86;67.30
76285;BME280;65096;50.998;7.098;2022-12-28T01:29:32;101204.72;;;3.89;66.79
76285;BME280;65096;50.998;7.098;2022-12-28T01:31:59;101203.34;;;3.97;67.21
76285;BME280;65096;50.998;7.098;2022-12-28T01:34:27;101198.44;;;4.01;66.99
76285;BME280;65096;50.998;7.098;2022-12-28T01:36:53;101204.13;;;3.94;67.05
76285;BME280;65096;50.998;7.098;2022-12-28T01:39:20;101191.78;;;3.84;68.72
76285;BME280;65096;50.998;7.098;2022-12-28T01:41:47;101181.75;;;3.89;68.31
76285;BME280;65096;50.998;7.098;2022-12-28T01:44:42;101176.91;;;3.95;68.58
76285;BME280;65096;50.998;7.098;2022-12-28T01:47:13;101154.50;;;3.67;69.35
76285;BME280;65096;50.998;7.098;2022-12-28T01:49:46;101172.56;;;3.72;69.68
76285;BME280;65096;50.998;7.098;2022-12-28T01:52:17;101175.78;;;3.88;69.38
76285;BME280;65096;50.998;7.098;2022-12-28T01:54:47;101162.19;;;3.88;68.97
76285;BME280;65096;50.998;7.098;2022-12-28T01:57:16;101158.19;;;3.94;69.37
76285;BME280;65096;50.998;7.098;2022-12-28T01:59:50;101150.66;;;3.77;70.26
76285;BME280;65096;50.998;7.098;2022-12-28T02:02:20;101146.03;;;3.89;69.37
76285;BME280;65096;50.998;7.098;2022-12-28T02:04:49;101142.66;;;3.90;69.61
76285;BME280;65096;50.998;7.098;2022-12-28T02:07:22;101130.19;;;3.96;69.72
76285;BME280;65096;50.998;7.098;2022-12-28T02:09:52;101132.84;;;3.99;69.22
76285;BME280;65096;50.998;7.098;2022-12-28T02:12:19;101122.75;;;4.02;69.09
76285;BME280;65096;50.998;7.098;2022-12-28T02:14:46;101105.25;;;4.11;68.84
76285;BME280;65096;50.998;7.098;2022-12-28T02:17:13;101118.09;;;3.92;69.86
76285;BME280;65096;50.998;7.098;2022-12-28T02:19:43;101112.44;;;3.99;68.93
76285;BME280;65096;50.998;7.098;2022-12-28T02:22:28;101124.88;;;4.12;68.84
76285;BME280;65096;50.998;7.098;2022-12-28T02:25:27;101111.75;;;4.25;68.23
76285;BME280;65096;50.998;7.098;2022-12-28T02:28:06;101106.53;;;4.22;68.63
76285;BME280;65096;50.998;7.098;2022-12-28T02:30:42;101106.41;;;4.19;68.58
76285;BME280;65096;50.998;7.098;2022-12-28T02:33:16;101101.06;;;4.13;68.84
76285;BME280;65096;50.998;7.098;2022-12-28T02:35:48;101090.97;;;3.94;69.63
76285;BME280;65096;50.998;7.098;2022-12-28T02:38:21;101083.72;;;4.04;69.38
76285;BME280;65096;50.998;7.098;2022-12-28T02:40:53;101087.22;;;4.06;69.42
76285;BME280;65096;50.998;7.098;2022-12-28T02:43:21;101080.94;;;4.20;69.33
76285;BME280;65096;50.998;7.098;2022-12-28T02:45:49;101082.28;;;4.33;68.20
76285;BME280;65096;50.998;7.098;2022-12-28T02:48:38;101072.50;;;4.21;68.52
76285;BME280;65096;50.998;7.098;2022-12-28T02:51:40;101067.44;;;4.23;68.76
76285;BME280;65096;50.998;7.098;2022-12-28T02:54:20;101065.94;;;4.50;67.72
76285;BME280;65096;50.998;7.098;2022-12-28T02:57:11;101061.47;;;4.44;68.26
76285;BME280;65096;50.998;7.098;2022-12-28T02:59:52;101053.16;;;4.50;68.07
76285;BME280;65096;50.998;7.098;2022-12-28T03:02:36;101048.91;;;4.50;68.01
76285;BME280;65096;50.998;7.098;2022-12-28T03:05:10;101037.84;;;4.28;69.17
76285;BME280;65096;50.998;7.098;2022-12-28T03:07:47;101033.31;;;4.43;68.80
76285;BME280;65096;50.998;7.098;2022-12-28T03:10:40;101034.00;;;4.37;68.46
76285;BME280;65096;50.998;7.098;2022-12-28T03:13:14;101027.91;;;4.34;68.60
76285;BME280;65096;50.998;7.098;2022-12-28T03:16:02;101024.63;;;4.38;68.77
76285;BME280;65096;50.998;7.098;2022-12-28T03:18:32;101022.72;;;4.56;68.06
76285;BME280;65096;50.998;7.098;2022-12-28T03:21:18;101019.19;;;4.52;68.43
76285;BME280;65096;50.998;7.098;2022-12-28T03:24:04;100994.22;;;4.44;68.43
76285;BME280;65096;50.998;7.098;2022-12-28T03:26:50;101012.84;;;4.41;69.03
76285;BME280;65096;50.998;7.098;2022-12-28T03:29:39;100991.09;;;4.52;68.01
76285;BME280;65096;50.998;7.098;2022-12-28T03:32:25;101005.84;;;4.59;68.67
76285;BME280;65096;50.998;7.098;2022-12-28T03:34:53;100999.09;;;4.61;68.41
76285;BME280;65096;50.998;7.098;2022-12-28T03:37:24;100991.66;;;4.67;68.17
76285;BME280;65096;50.998;7.098;2022-12-28T03:39:57;100991.50;;;4.63;68.37
76285;BME280;65096;50.998;7.098;2022-12-28T03:42:28;100984.91;;;4.69;68.30
76285;BME280;65096;50.998;7.098;2022-12-28T03:45:18;100976.22;;;4.64;68.10
76285;BME280;65096;50.998;7.098;2022-12-28T03:47:46;100972.94;;;4.43;69.05
76285;BME280;65096;50.998;7.098;2022-12-28T03:50:16;100972.34;;;4.52;69.04
76285;BME280;65096;50.998;7.098;2022-12-28T03:52:43;100974.75;;;4.71;68.36
76285;BME280;65096;50.998;7.098;2022-12-28T03:55:10;100971.41;;;4.73;68.16
76285;BME280;65096;50.998;7.098;2022-12-28T03:57:38;100966.66;;;4.84;67.61
76285;BME280;65096;50.998;7.098;2022-12-28T04:00:06;100963.41;;;4.88;67.34
76285;BME280;65096;50.998;7.098;2022-12-28T04:02:35;100953.47;;;4.97;67.49
76285;BME280;65096;50.998;7.098;2022-12-28T04:05:02;100952.41;;;4.90;67.48
76285;BME280;65096;50.998;7.098;2022-12-28T04:07:33;100950.31;;;5.04;67.04
76285;BME280;65096;50.998;7.098;2022-12-28T04:09:59;100946.13;;;5.06;66.89
76285;BME280;65096;50.998;7.098;2022-12-28T04:12:26;100943.56;;;4.81;68.36
76285;BME280;65096;50.998;7.098;2022-12-28T04:14:53;100947.13;;;4.86;67.65
76285;BME280;65096;50.998;7.098;2022-12-28T04:17:19;100946.81;;;5.02;67.51
76285;BME280;65096;50.998;7.098;2022-12-28T04:19:46;100959.75;;;5.07;67.57
76285;BME280;65096;50.998;7.098;2022-12-28T04:22:13;100948.78;;;5.09;67.03
76285;BME280;65096;50.998;7.098;2022-12-28T04:24:43;100956.66;;;5.17;66.82
76285;BME280;65096;50.998;7.098;2022-12-28T04:27:10;100945.53;;;5.15;66.90
76285;BME280;65096;50.998;7.098;2022-12-28T04:29:36;100943.66;;;5.09;66.94
76285;BME280;65096;50.998;7.098;2022-12-28T04:32:04;100931.94;;;5.16;66.84
76285;BME280;65096;50.998;7.098;2022-12-28T04:34:31;100932.31;;;5.01;67.80
76285;BME280;65096;50.998;7.098;2022-12-28T04:36:57;100922.72;;;5.21;67.35
76285;BME280;65096;50.998;7.098;2022-12-28T04:39:24;100916.31;;;5.33;66.95
76285;BME280;65096;50.998;7.098;2022-12-28T04:41:52;100914.47;;;5.29;67.00
76285;BME280;65096;50.998;7.098;2022-12-28T04:44:19;100915.44;;;5.33;67.09
76285;BME280;65096;50.998;7.098;2022-12-28T04:46:45;100918.31;;;5.17;67.44
76285;BME280;65096;50.998;7.098;2022-12-28T04:49:12;100913.44;;;5.24;67.61
76285;BME280;65096;50.998;7.098;2022-12-28T04:51:39;100909.72;;;5.41;66.93
76285;BME280;65096;50.998;7.098;2022-12-28T04:54:05;100902.78;;;5.37;67.00
76285;BME280;65096;50.998;7.098;2022-12-28T04:56:32;100901.59;;;5.54;66.66
76285;BME280;65096;50.998;7.098;2022-12-28T04:59:00;100893.69;;;5.47;67.04
76285;BME280;65096;50.998;7.098;2022-12-28T05:01:27;100898.75;;;5.45;67.11
76285;BME280;65096;50.998;7.098;2022-12-28T05:03:54;100891.16;;;5.48;66.78
76285;BME280;65096;50.998;7.098;2022-12-28T05:06:22;100883.09;;;5.35;67.46
76285;BME280;65096;50.998;7.098;2022-12-28T05:08:50;100874.81;;;5.43;66.98
76285;BME280;65096;50.998;7.098;2022-12-28T05:11:18;100883.28;;;5.41;67.69
76285;BME280;65096;50.998;7.098;2022-12-28T05:13:45;100874.84;;;5.45;67.43
76285;BME280;65096;50.998;7.098;2022-12-28T05:16:15;100871.38;;;5.41;67.48
76285;BME280;65096;50.998;7.098;2022-12-28T05:18:43;100869.91;;;5.49;67.30
76285;BME280;65096;50.998;7.098;2022-12-28T05:21:12;100866.34;;;5.44;67.21
76285;BME280;65096;50.998;7.098;2022-12-28T05:23:39;100866.16;;;5.38;67.81
76285;BME280;65096;50.998;7.098;2022-12-28T05:26:08;100859.34;;;5.39;67.82
76285;BME280;65096;50.998;7.098;2022-12-28T05:28:36;100859.72;;;5.51;67.13
76285;BME280;65096;50.998;7.098;2022-12-28T05:31:05;100861.00;;;5.66;67.34
76285;BME280;65096;50.998;7.098;2022-12-28T05:33:34;100857.84;;;5.75;66.83
76285;BME280;65096;50.998;7.098;2022-12-28T05:36:02;100866.69;;;5.86;66.40
76285;BME280;65096;50.998;7.098;2022-12-28T05:38:29;100859.34;;;5.98;66.05
76285;BME280;65096;50.998;7.098;2022-12-28T05:41:03;100859.41;;;6.01;65.99
76285;BME280;65096;50.998;7.098;2022-12-28T05:43:30;100850.91;;;6.00;65.85
76285;BME280;65096;50.998;7.098;2022-12-28T05:46:01;100856.91;;;6.02;66.19
76285;BME280;65096;50.998;7.098;2022-12-28T05:48:34;100850.97;;;6.03;66.15
76285;BME280;65096;50.998;7.098;2022-12-28T05:51:03;100844.28;;;6.08;66.20
76285;BME280;65096;50.998;7.098;2022-12-28T05:53:31;100825.31;;;6.00;66.03
76285;BME280;65096;50.998;7.098;2022-12-28T05:56:02;100837.44;;;6.09;66.11
76285;BME280;65096;50.998;7.098;2022-12-28T05:58:29;100840.22;;;6.16;66.16
76285;BME280;65096;50.998;7.098;2022-12-28T06:01:03;100843.94;;;6.26;65.65
76285;BME280;65096;50.998;7.098;2022-12-28T06:03:30;100834.53;;;6.26;65.67
76285;BME280;65096;50.998;7.098;2022-12-28T06:06:06;100836.97;;;6.22;66.13
76285;BME280;65096;50.998;7.098;2022-12-28T06:08:33;100837.06;;;6.25;65.89
76285;BME280;65096;50.998;7.098;2022-12-28T06:11:00;100835.59;;;6.34;65.02
76285;BME280;65096;50.998;7.098;2022-12-28T06:13:28;100833.13;;;6.38;65.14
76285;BME280;65096;50.998;7.098;2022-12-28T06:15:55;100833.88;;;6.33;65.16
76285;BME280;65096;50.998;7.098;2022-12-28T06:18:22;100823.81;;;6.41;65.31
76285;BME280;65096;50.998;7.098;2022-12-28T06:20:49;100822.16;;;6.43;65.30
76285;BME280;65096;50.998;7.098;2022-12-28T06:23:17;100832.59;;;6.51;64.82
76285;BME280;65096;50.998;7.098;2022-12-28T06:25:44;100821.63;;;6.56;64.75
76285;BME280;65096;50.998;7.098;2022-12-28T06:28:11;100810.41;;;6.51;64.80
76285;BME280;65096;50.998;7.098;2022-12-28T06:30:37;100811.34;;;6.55;64.40
76285;BME280;65096;50.998;7.098;2022-12-28T06:33:04;100812.91;;;6.48;64.36
76285;BME280;65096;50.998;7.098;2022-12-28T06:35:31;100802.03;;;6.57;64.49
76285;BME280;65096;50.998;7.098;2022-12-28T06:37:57;100799.66;;;6.66;64.40
76285;BME280;65096;50.998;7.098;2022-12-28T06:40:25;100798.78;;;6.65;63.97
76285;BME280;65096;50.998;7.098;2022-12-28T06:42:54;100795.22;;;6.59;64.25
76285;BME280;65096;50.998;7.098;2022-12-28T06:45:21;100786.06;;;6.70;64.34
76285;BME280;65096;50.998;7.098;2022-12-28T06:47:47;100786.91;;;6.69;64.31
76285;BME280;65096;50.998;7.098;2022-12-28T06:50:14;100798.97;;;6.73;63.94
76285;BME280;65096;50.998;7.098;2022-12-28T06:52:41;100791.19;;;6.70;63.58
76285;BME280;65096;50.998;7.098;2022-12-28T06:55:08;100799.94;;;6.78;63.60
76285;BME280;65096;50.998;7.098;2022-12-28T06:57:36;100793.22;;;6.83;63.15
76285;BME280;65096;50.998;7.098;2022-12-28T07:00:04;100787.81;;;6.71;63.83
76285;BME280;65096;50.998;7.098;2022-12-28T07:02:31;100799.19;;;6.82;63.41
76285;BME280;65096;50.998;7.098;2022-12-28T07:04:57;100798.34;;;6.83;63.50
76285;BME280;65096;50.998;7.098;2022-12-28T07:07:24;100800.94;;;6.84;62.97
76285;BME280;65096;50.998;7.098;2022-12-28T07:09:51;100801.69;;;6.79;63.40
76285;BME280;65096;50.998;7.098;2022-12-28T07:12:17;100798.28;;;6.80;63.75
76285;BME280;65096;50.998;7.098;2022-12-28T07:14:45;100795.81;;;6.84;63.90
76285;BME280;65096;50.998;7.098;2022-12-28T07:17:12;100805.09;;;6.79;63.45
76285;BME280;65096;50.998;7.098;2022-12-28T07:19:39;100800.78;;;6.77;64.04
76285;BME280;65096;50.998;7.098;2022-12-28T07:22:05;100802.78;;;6.90;63.18
76285;BME280;65096;50.998;7.098;2022-12-28T07:24:32;100798.56;;;6.92;63.49
76285;BME280;65096;50.998;7.098;2022-12-28T07:26:59;100794.19;;;6.88;63.71
76285;BME280;65096;50.998;7.098;2022-12-28T07:29:26;100798.75;;;7.01;63.03
76285;BME280;65096;50.998;7.098;2022-12-28T07:31:54;100796.28;;;7.05;63.28
76285;BME280;65096;50.998;7.098;2022-12-28T07:34:21;100795.03;;;6.87;63.56
76285;BME280;65096;50.998;7.098;2022-12-28T07:36:47;100797.16;;;7.06;62.53
76285;BME280;65096;50.998;7.098;2022-12-28T07:39:14;100792.66;;;6.96;63.54
76285;BME280;65096;50.998;7.098;2022-12-28T07:41:41;100796.19;;;7.01;63.05
76285;BME280;65096;50.998;7.098;2022-12-28T07:44:07;100796.41;;;7.11;63.02
76285;BME280;65096;50.998;7.098;2022-12-28T07:46:35;100792.97;;;7.09;63.03
76285;BME280;65096;50.998;7.098;2022-12-28T07:49:04;100787.56;;;6.97;63.04
76285;BME280;65096;50.998;7.098;2022-12-28T07:51:32;100793.69;;;7.04;63.07
76285;BME280;65096;50.998;7.098;2022-12-28T07:54:00;100793.75;;;7.07;63.15
76285;BME280;65096;50.998;7.098;2022-12-28T07:56:28;100793.63;;;7.01;63.10
76285;BME280;65096;50.998;7.098;2022-12-28T07:58:57;100785.94;;;7.01;63.53
76285;BME280;65096;50.998;7.098;2022-12-28T08:01:26;100794.44;;;6.98;62.82
76285;BME280;65096;50.998;7.098;2022-12-28T08:03:54;100792.16;;;7.12;62.97
76285;BME280;65096;50.998;7.098;2022-12-28T08:06:23;100804.19;;;7.14;62.90
76285;BME280;65096;50.998;7.098;2022-12-28T08:08:52;100787.09;;;7.15;62.72
76285;BME280;65096;50.998;7.098;2022-12-28T08:11:21;100788.63;;;7.07;62.78
76285;BME280;65096;50.998;7.098;2022-12-28T08:13:49;100789.66;;;7.15;62.72
76285;BME280;65096;50.998;7.098;2022-12-28T08:16:18;100796.72;;;7.25;62.69
76285;BME280;65096;50.998;7.098;2022-12-28T08:18:46;100788.44;;;6.98;63.25
76285;BME280;65096;50.998;7.098;2022-12-28T08:21:15;100768.13;;;7.07;62.77
76285;BME280;65096;50.998;7.098;2022-12-28T08:23:44;100784.63;;;7.19;62.69
76285;BME280;65096;50.998;7.098;2022-12-28T08:26:13;100793.38;;;7.29;62.77
76285;BME280;65096;50.998;7.098;2022-12-28T08:28:41;100782.94;;;7.20;62.95
76285;BME280;65096;50.998;7.098;2022-12-28T08:31:09;100790.47;;;7.12;62.92
76285;BME280;65096;50.998;7.098;2022-12-28T08:33:37;100795.00;;;7.24;62.48
76285;BME280;65096;50.998;7.098;2022-12-28T08:36:05;100793.22;;;7.21;62.75
76285;BME280;65096;50.998;7.098;2022-12-28T08:38:32;100794.16;;;7.25;62.69
76285;BME280;65096;50.998;7.098;2022-12-28T08:41:02;100784.09;;;7.35;62.47
76285;BME280;65096;50.998;7.098;2022-12-28T08:43:30;100790.25;;;7.43;62.47
76285;BME280;65096;50.998;7.098;2022-12-28T08:45:57;100795.19;;;7.33;62.96
76285;BME280;65096;50.998;7.098;2022-12-28T08:48:24;100785.69;;;7.29;63.00
76285;BME280;65096;50.998;7.098;2022-12-28T08:50:51;100787.31;;;7.24;62.84
76285;BME280;65096;50.998;7.098;2022-12-28T08:53:19;100786.69;;;7.37;62.85
76285;BME280;65096;50.998;7.098;2022-12-28T08:55:48;100790.91;;;7.32;62.55
76285;BME280;65096;50.998;7.098;2022-12-28T08:58:16;100793.53;;;7.35;62.77
76285;BME280;65096;50.998;7.098;2022-12-28T09:00:48;100791.69;;;7.29;62.69
76285;BME280;65096;50.998;7.098;2022-12-28T09:03:14;100787.72;;;7.45;62.46
76285;BME280;65096;50.998;7.098;2022-12-28T09:05:41;100781.59;;;7.38;63.14
76285;BME280;65096;50.998;7.098;2022-12-28T09:08:08;100775.84;;;7.50;62.90
76285;BME280;65096;50.998;7.098;2022-12-28T09:10:35;100787.75;;;7.46;62.67
76285;BME280;65096;50.998;7.098;2022-12-28T09:13:01;100785.38;;;7.55;62.79
76285;BME280;65096;50.998;7.098;2022-12-28T09:15:29;100780.88;;;7.44;63.12
76285;BME280;65096;50.998;7.098;2022-12-28T09:17:56;100792.16;;;7.52;63.16
76285;BME280;65096;50.998;7.098;2022-12-28T09:20:23;100783.56;;;7.51;63.68
76285;BME280;65096;50.998;7.098;2022-12-28T09:22:49;100792.13;;;7.50;63.45
76285;BME280;65096;50.998;7.098;2022-12-28T09:25:16;100781.19;;;7.59;63.52
76285;BME280;65096;50.998;7.098;2022-12-28T09:27:46;100780.25;;;7.55;63.91
76285;BME280;65096;50.998;7.098;2022-12-28T09:30:13;100790.66;;;7.63;63.78
76285;BME280;65096;50.998;7.098;2022-12-28T09:32:41;100787.91;;;7.54;64.02
76285;BME280;65096;50.998;7.098;2022-12-28T09:35:08;100786.31;;;7.59;64.20
76285;BME280;65096;50.998;7.098;2022-12-28T09:37:35;100781.25;;;7.62;63.46
76285;BME280;65096;50.998;7.098;2022-12-28T09:40:02;100779.56;;;7.64;63.88
76285;BME280;65096;50.998;7.098;2022-12-28T09:42:29;100782.09;;;7.62;63.96
76285;BME280;65096;50.998;7.098;2022-12-28T09:45:00;100783.81;;;7.62;63.71
76285;BME280;65096;50.998;7.098;2022-12-28T09:47:34;100777.94;;;7.69;63.08
76285;BME280;65096;50.998;7.098;2022-12-28T09:50:23;100787.31;;;7.65;63.30
76285;BME280;65096;50.998;7.098;2022-12-28T09:53:02;100786.38;;;7.62;63.50
76285;BME280;65096;50.998;7.098;2022-12-28T09:55:32;100787.19;;;7.61;63.67
76285;BME280;65096;50.998;7.098;2022-12-28T09:58:00;100790.50;;;7.54;63.88
76285;BME280;65096;50.998;7.098;2022-12-28T10:00:35;100789.00;;;7.65;63.40
76285;BME280;65096;50.998;7.098;2022-12-28T10:03:05;100783.72;;;7.57;63.25
76285;BME280;65096;50.998;7.098;2022-12-28T10:05:34;100788.06;;;7.61;63.55
76285;BME280;65096;50.998;7.098;2022-12-28T10:08:01;100780.97;;;7.48;63.71
76285;BME280;65096;50.998;7.098;2022-12-28T10:10:29;100777.69;;;7.55;63.44
76285;BME280;65096;50.998;7.098;2022-12-28T10:12:56;100781.19;;;7.59;63.73
76285;BME280;65096;50.998;7.098;2022-12-28T10:15:26;100776.28;;;7.72;62.84
76285;BME280;65096;50.998;7.098;2022-12-28T10:17:53;100771.38;;;7.82;62.64
76285;BME280;65096;50.998;7.098;2022-12-28T10:20:21;100778.94;;;7.75;63.04
76285;BME280;65096;50.998;7.098;2022-12-28T10:22:51;100779.13;;;7.83;62.18
76285;BME280;65096;50.998;7.098;2022-12-28T10:25:20;100770.13;;;7.63;62.76
76285;BME280;65096;50.998;7.098;2022-12-28T10:27:48;100779.59;;;7.65;62.89
76285;BME280;65096;50.998;7.098;2022-12-28T10:30:17;100770.03;;;7.58;63.19
76285;BME280;65096;50.998;7.098;2022-12-28T10:32:50;100752.13;;;7.61;63.01
76285;BME280;65096;50.998;7.098;2022-12-28T10:35:23;100763.47;;;7.72;62.60
76285;BME280;65096;50.998;7.098;2022-12-28T10:37:57;100758.22;;;7.66;62.70
76285;BME280;65096;50.998;7.098;2022-12-28T10:40:27;100748.00;;;7.69;62.77
76285;BME280;65096;50.998;7.098;2022-12-28T10:42:56;100753.06;;;7.65;63.61
76285;BME280;65096;50.998;7.098;2022-12-28T10:45:33;100743.88;;;7.76;62.90
76285;BME280;65096;50.998;7.098;2022-12-28T10:48:07;100754.97;;;7.73;62.24
76285;BME280;65096;50.998;7.098;2022-12-28T10:50:50;100746.66;;;7.88;62.30
76285;BME280;65096;50.998;7.098;2022-12-28T10:53:23;100740.84;;;7.97;62.28
76285;BME280;65096;50.998;7.098;2022-12-28T10:56:00;100737.31;;;7.92;62.25
76285;BME280;65096;50.998;7.098;2022-12-28T10:58:27;100731.38;;;7.94;62.33
76285;BME280;65096;50.998;7.098;2022-12-28T11:00:55;100722.75;;;7.89;62.32
76285;BME280;65096;50.998;7.098;2022-12-28T11:03:27;100722.84;;;7.97;62.51
76285;BME280;65096;50.998;7.098;2022-12-28T11:06:12;100725.50;;;8.01;61.87
76285;BME280;65096;50.998;7.098;2022-12-28T11:08:41;100719.63;;;8.08;61.83
76285;BME280;65096;50.998;7.098;2022-12-28T11:11:17;100709.19;;;7.98;62.35
76285;BME280;65096;50.998;7.098;2022-12-28T11:13:46;100707.34;;;7.89;61.85
76285;BME280;65096;50.998;7.098;2022-12-28T11:16:15;100711.00;;;8.03;61.74
76285;BME280;65096;50.998;7.098;2022-12-28T11:18:42;100711.50;;;7.83;62.59
76285;BME280;65096;50.998;7.098;2022-12-28T11:21:10;100703.88;;;7.87;62.86
76285;BME280;65096;50.998;7.098;2022-12-28T11:23:42;100704.78;;;7.89;62.16
76285;BME280;65096;50.998;7.098;2022-12-28T11:26:10;100711.00;;;8.03;61.94
76285;BME280;65096;50.998;7.098;2022-12-28T11:28:39;100701.59;;;8.04;62.24
76285;BME280;65096;50.998;7.098;2022-12-28T11:31:08;100707.69;;;8.10;61.98
76285;BME280;65096;50.998;7.098;2022-12-28T11:33:41;100702.56;;;8.10;61.86
76285;BME280;65096;50.998;7.098;2022-12-28T11:36:13;100702.56;;;8.10;62.00
76285;BME280;65096;50.998;7.098;2022-12-28T11:38:42;100687.13;;;8.09;61.67
76285;BME280;65096;50.998;7.098;2022-12-28T11:41:11;100707.81;;;8.18;61.72
76285;BME280;65096;50.998;7.098;2022-12-28T11:43:43;100700.78;;;8.08;61.59
76285;BME280;65096;50.998;7.098;2022-12-28T11:46:40;100688.84;;;8.10;62.03
76285;BME280;65096;50.998;7.098;2022-12-28T11:49:26;100699.88;;;8.06;62.46
76285;BME280;65096;50.998;7.098;2022-12-28T11:58:41;100694.63;;;7.97;62.03
76285;BME280;65096;50.998;7.098;2022-12-28T12:01:09;100683.72;;;8.11;61.26
76285;BME280;65096;50.998;7.098;2022-12-28T12:04:15;100688.03;;;8.14;61.19
76285;BME280;65096;50.998;7.098;2022-12-28T12:10:28;100679.56;;;8.18;60.16
76285;BME280;65096;50.998;7.098;2022-12-28T12:12:56;100674.41;;;8.16;60.27
76285;BME280;65096;50.998;7.098;2022-12-28T12:15:30;100667.59;;;8.18;60.54
76285;BME280;65096;50.998;7.098;2022-12-28T12:18:01;100663.13;;;8.08;60.76
76285;BME280;65096;50.998;7.098;2022-12-28T12:20:52;100646.16;;;8.18;59.63
76285;BME280;65096;50.998;7.098;2022-12-28T12:23:31;100646.88;;;8.09;59.48
76285;BME280;65096;50.998;7.098;2022-12-28T12:26:17;100639.28;;;8.15;59.55
76285;BME280;65096;50.998;7.098;2022-12-28T12:28:47;100636.78;;;8.20;60.07
76285;BME280;65096;50.998;7.098;2022-12-28T12:31:23;100633.38;;;8.22;59.78
76285;BME280;65096;50.998;7.098;2022-12-28T12:33:52;100639.50;;;8.30;59.86
76285;BME280;65096;50.998;7.098;2022-12-28T12:36:42;100631.03;;;8.37;59.81
76285;BME280;65096;50.998;7.098;2022-12-28T12:39:26;100630.13;;;8.34;60.66
76285;BME280;65096;50.998;7.098;2022-12-28T12:42:02;100625.88;;;8.36;60.03
76285;BME280;65096;50.998;7.098;2022-12-28T12:44:38;100632.66;;;8.31;60.37
76285;BME280;65096;50.998;7.098;2022-12-28T12:47:26;100636.00;;;8.25;60.88
76285;BME280;65096;50.998;7.098;2022-12-28T12:50:20;100636.88;;;8.26;60.87
76285;BME280;65096;50.998;7.098;2022-12-28T12:52:54;100631.78;;;8.29;60.92
76285;BME280;65096;50.998;7.098;2022-12-28T12:55:38;100636.06;;;8.31;60.70
76285;BME280;65096;50.998;7.098;2022-12-28T12:58:15;100624.97;;;8.31;60.34
76285;BME280;65096;50.998;7.098;2022-12-28T13:03:40;100606.94;;;8.28;61.01
76285;BME280;65096;50.998;7.098;2022-12-28T13:06:13;100606.03;;;8.26;61.49
76285;BME280;65096;50.998;7.098;2022-12-28T13:08:44;100605.22;;;8.30;61.07
76285;BME280;65096;50.998;7.098;2022-12-28T13:11:12;100606.91;;;8.26;61.44
76285;BME280;65096;50.998;7.098;2022-12-28T13:13:43;100603.53;;;8.30;61.14
76285;BME280;65096;50.998;7.098;2022-12-28T13:16:14;100598.31;;;8.24;61.00
76285;BME280;65096;50.998;7.098;2022-12-28T13:18:53;100597.50;;;8.28;60.51
76285;BME280;65096;50.998;7.098;2022-12-28T13:21:21;100592.31;;;8.25;60.42
76285;BME280;65096;50.998;7.098;2022-12-28T13:23:49;100594.84;;;8.22;60.92
76285;BME280;65096;50.998;7.098;2022-12-28T13:26:16;100578.78;;;8.35;59.82
76285;BME280;65096;50.998;7.098;2022-12-28T13:28:49;100574.41;;;8.30;60.36
76285;BME280;65096;50.998;7.098;2022-12-28T13:31:19;100564.94;;;8.26;60.05